sensor_id;sensor_type;location;lat;lon;timestamp;P1;durP1;ratioP1;P2;durP2;ratioP2
66663;SDS011;59683;51.428;-1.994;2024-01-16T00:00:31;36.13;;;16.13;;
66663;SDS011;59683;51.428;-1.994;2024-01-16T00:02:56;33.37;;;15.87;;
66663;SDS011;59683;51.428;-1.994;2024-01-16T00:05:22;42.57;;;17.67;;
66663;SDS011;59683;51.428;-1.994;2024-01-16T00:07:47;39.43;;;17.00;;
66663;SDS011;59683;51.428;-1.994;2024-01-16T00:10:12;45.43;;;18.90;;
66663;SDS011;59683;51.428;-1.994;2024-01-16T00:12:38;40.13;;;18.00;;
66663;SDS011;59683;51.428;-1.994;2024-01-16T00:15:05;43.95;;;18.60;;
66663;SDS011;59683;51.428;-1.994;2024-01-16T00:17:31;42.83;;;16.60;;
66663;SDS011;59683;51.428;-1.994;2024-01-16T00:19:56;34.20;;;14.47;;
66663;SDS011;59683;51.428;-1.994;2024-01-16T00:22:26;36.72;;;16.65;;
66663;SDS011;59683;51.428;-1.994;2024-01-16T00:24:51;37.95;;;17.27;;
66663;SDS011;59683;51.428;-1.994;2024-01-16T00:27:17;32.67;;;14.30;;
66663;SDS011;59683;51.428;-1.994;2024-01-16T00:29:42;33.50;;;14.67;;
66663;SDS011;59683;51.428;-1.994;2024-01-16T00:32:07;30.80;;;13.83;;
66663;SDS011;59683;51.428;-1.994;2024-01-16T00:34:33;43.13;;;14.57;;
66663;SDS011;59683;51.428;-1.994;2024-01-16T00:36:58;31.13;;;14.53;;
66663;SDS011;59683;51.428;-1.994;2024-01-16T00:39:24;29.00;;;14.37;;
66663;SDS011;59683;51.428;-1.994;2024-01-16T00:41:50;32.50;;;13.00;;
66663;SDS011;59683;51.428;-1.994;2024-01-16T00:44:15;31.67;;;14.70;;
66663;SDS011;59683;51.428;-1.994;2024-01-16T00:46:40;32.60;;;13.20;;
66663;SDS011;59683;51.428;-1.994;2024-01-16T00:49:06;24.20;;;11.23;;
66663;SDS011;59683;51.428;-1.994;2024-01-16T00:51:32;25.58;;;8.88;;
66663;SDS011;59683;51.428;-1.994;2024-01-16T00:53:58;16.67;;;9.37;;
66663;SDS011;59683;51.428;-1.994;2024-01-16T00:56:23;24.17;;;9.40;;
66663;SDS011;59683;51.428;-1.994;2024-01-16T00:58:49;18.27;;;8.63;;
66663;SDS011;59683;51.428;-1.994;2024-01-16T01:01:14;21.10;;;9.40;;
66663;SDS011;59683;51.428;-1.994;2024-01-16T01:03:40;19.93;;;9.63;;
66663;SDS011;59683;51.428;-1.994;2024-01-16T01:06:05;23.23;;;10.13;;
66663;SDS011;59683;51.428;-1.994;2024-01-16T01:08:31;19.20;;;8.90;;
66663;SDS011;59683;51.428;-1.994;2024-01-16T01:10:56;25.33;;;10.63;;
66663;SDS011;59683;51.428;-1.994;2024-01-16T01:13:22;23.57;;;9.80;;
66663;SDS011;59683;51.428;-1.994;2024-01-16T01:15:47;22.23;;;10.23;;
66663;SDS011;59683;51.428;-1.994;2024-01-16T01:18:12;22.97;;;10.90;;
66663;SDS011;59683;51.428;-1.994;2024-01-16T01:20:38;25.67;;;10.93;;
66663;SDS011;59683;51.428;-1.994;2024-01-16T01:23:03;23.23;;;10.63;;
66663;SDS011;59683;51.428;-1.994;2024-01-16T01:25:29;32.90;;;11.53;;
66663;SDS011;59683;51.428;-1.994;2024-01-16T01:27:54;22.40;;;10.27;;
66663;SDS011;59683;51.428;-1.994;2024-01-16T01:30:20;21.80;;;9.33;;
66663;SDS011;59683;51.428;-1.994;2024-01-16T01:32:45;21.60;;;9.10;;
66663;SDS011;59683;51.428;-1.994;2024-01-16T01:35:10;19.90;;;10.07;;
66663;SDS011;59683;51.428;-1.994;2024-01-16T01:37:39;20.02;;;8.23;;
66663;SDS011;59683;51.428;-1.994;2024-01-16T01:40:05;25.63;;;9.30;;
66663;SDS011;59683;51.428;-1.994;2024-01-16T01:42:31;23.58;;;10.63;;
66663;SDS011;59683;51.428;-1.994;2024-01-16T01:44:56;23.53;;;10.97;;
66663;SDS011;59683;51.428;-1.994;2024-01-16T01:47:22;28.03;;;11.17;;
66663;SDS011;59683;51.428;-1.994;2024-01-16T01:49:47;21.83;;;9.20;;
66663;SDS011;59683;51.428;-1.994;2024-01-16T01:52:13;21.60;;;9.57;;
66663;SDS011;59683;51.428;-1.994;2024-01-16T01:54:39;25.40;;;9.50;;
66663;SDS011;59683;51.428;-1.994;2024-01-16T01:57:06;20.90;;;9.45;;
66663;SDS011;59683;51.428;-1.994;2024-01-16T01:59:33;19.55;;;9.40;;
66663;SDS011;59683;51.428;-1.994;2024-01-16T02:01:59;23.63;;;9.43;;
66663;SDS011;59683;51.428;-1.994;2024-01-16T02:04:25;20.27;;;9.03;;
66663;SDS011;59683;51.428;-1.994;2024-01-16T02:06:51;20.60;;;8.93;;
66663;SDS011;59683;51.428;-1.994;2024-01-16T02:09:17;26.43;;;8.03;;
66663;SDS011;59683;51.428;-1.994;2024-01-16T02:11:43;23.23;;;8.90;;
66663;SDS011;59683;51.428;-1.994;2024-01-16T02:14:08;17.07;;;7.73;;
66663;SDS011;59683;51.428;-1.994;2024-01-16T02:16:38;16.25;;;7.95;;
66663;SDS011;59683;51.428;-1.994;2024-01-16T02:21:32;15.68;;;7.63;;
66663;SDS011;59683;51.428;-1.994;2024-01-16T02:24:03;21.02;;;7.68;;
66663;SDS011;59683;51.428;-1.994;2024-01-16T02:26:31;22.65;;;8.85;;
66663;SDS011;59683;51.428;-1.994;2024-01-16T02:28:57;16.42;;;7.07;;
66663;SDS011;59683;51.428;-1.994;2024-01-16T02:31:23;21.07;;;8.27;;
66663;SDS011;59683;51.428;-1.994;2024-01-16T02:33:48;14.83;;;7.83;;
66663;SDS011;59683;51.428;-1.994;2024-01-16T02:36:13;17.00;;;7.93;;
66663;SDS011;59683;51.428;-1.994;2024-01-16T02:38:39;17.17;;;7.83;;
66663;SDS011;59683;51.428;-1.994;2024-01-16T02:41:04;12.70;;;6.47;;
66663;SDS011;59683;51.428;-1.994;2024-01-16T02:43:30;16.05;;;7.10;;
66663;SDS011;59683;51.428;-1.994;2024-01-16T02:45:56;16.57;;;7.53;;
66663;SDS011;59683;51.428;-1.994;2024-01-16T02:48:23;17.27;;;7.10;;
66663;SDS011;59683;51.428;-1.994;2024-01-16T02:50:48;16.53;;;7.13;;
66663;SDS011;59683;51.428;-1.994;2024-01-16T02:53:13;17.47;;;7.03;;
66663;SDS011;59683;51.428;-1.994;2024-01-16T02:55:39;24.83;;;7.27;;
66663;SDS011;59683;51.428;-1.994;2024-01-16T02:58:04;21.07;;;6.93;;
66663;SDS011;59683;51.428;-1.994;2024-01-16T03:00:30;15.65;;;7.30;;
66663;SDS011;59683;51.428;-1.994;2024-01-16T03:02:55;15.57;;;7.67;;
66663;SDS011;59683;51.428;-1.994;2024-01-16T03:05:21;21.17;;;7.50;;
66663;SDS011;59683;51.428;-1.994;2024-01-16T03:07:46;15.63;;;6.63;;
66663;SDS011;59683;51.428;-1.994;2024-01-16T03:10:12;22.70;;;8.20;;
66663;SDS011;59683;51.428;-1.994;2024-01-16T03:12:37;16.97;;;7.33;;
66663;SDS011;59683;51.428;-1.994;2024-01-16T03:15:03;24.50;;;8.03;;
66663;SDS011;59683;51.428;-1.994;2024-01-16T03:17:28;19.80;;;8.70;;
66663;SDS011;59683;51.428;-1.994;2024-01-16T03:19:54;19.40;;;7.87;;
66663;SDS011;59683;51.428;-1.994;2024-01-16T03:22:19;22.07;;;7.83;;
66663;SDS011;59683;51.428;-1.994;2024-01-16T03:24:44;17.57;;;6.93;;
66663;SDS011;59683;51.428;-1.994;2024-01-16T03:27:10;15.82;;;7.45;;
66663;SDS011;59683;51.428;-1.994;2024-01-16T03:29:36;17.73;;;8.57;;
66663;SDS011;59683;51.428;-1.994;2024-01-16T03:32:01;13.53;;;6.73;;
66663;SDS011;59683;51.428;-1.994;2024-01-16T03:34:27;13.70;;;6.97;;
66663;SDS011;59683;51.428;-1.994;2024-01-16T03:36:54;14.07;;;6.13;;
66663;SDS011;59683;51.428;-1.994;2024-01-16T03:39:20;14.50;;;5.90;;
66663;SDS011;59683;51.428;-1.994;2024-01-16T03:41:45;13.10;;;7.33;;
66663;SDS011;59683;51.428;-1.994;2024-01-16T03:44:11;12.03;;;5.97;;
66663;SDS011;59683;51.428;-1.994;2024-01-16T03:46:36;13.40;;;6.07;;
66663;SDS011;59683;51.428;-1.994;2024-01-16T03:49:01;10.37;;;5.97;;
66663;SDS011;59683;51.428;-1.994;2024-01-16T03:51:27;15.87;;;5.80;;
66663;SDS011;59683;51.428;-1.994;2024-01-16T03:53:53;16.88;;;6.18;;
66663;SDS011;59683;51.428;-1.994;2024-01-16T03:56:18;12.73;;;6.40;;
66663;SDS011;59683;51.428;-1.994;2024-01-16T03:58:43;17.53;;;5.23;;
66663;SDS011;59683;51.428;-1.994;2024-01-16T04:01:09;10.77;;;6.10;;
66663;SDS011;59683;51.428;-1.994;2024-01-16T04:03:34;16.37;;;6.50;;
66663;SDS011;59683;51.428;-1.994;2024-01-16T04:06:00;14.97;;;6.50;;
66663;SDS011;59683;51.428;-1.994;2024-01-16T04:08:25;9.37;;;5.07;;
66663;SDS011;59683;51.428;-1.994;2024-01-16T04:10:51;15.27;;;5.90;;
66663;SDS011;59683;51.428;-1.994;2024-01-16T04:13:16;11.80;;;5.83;;
66663;SDS011;59683;51.428;-1.994;2024-01-16T04:15:41;14.17;;;6.20;;
66663;SDS011;59683;51.428;-1.994;2024-01-16T04:18:07;11.20;;;4.57;;
66663;SDS011;59683;51.428;-1.994;2024-01-16T04:20:32;11.87;;;5.07;;
66663;SDS011;59683;51.428;-1.994;2024-01-16T04:22:58;13.77;;;5.70;;
66663;SDS011;59683;51.428;-1.994;2024-01-16T04:25:23;16.17;;;6.67;;
66663;SDS011;59683;51.428;-1.994;2024-01-16T04:27:49;11.53;;;5.33;;
66663;SDS011;59683;51.428;-1.994;2024-01-16T04:30:15;13.60;;;5.88;;
66663;SDS011;59683;51.428;-1.994;2024-01-16T04:32:41;10.00;;;5.07;;
66663;SDS011;59683;51.428;-1.994;2024-01-16T04:35:06;20.10;;;6.67;;
66663;SDS011;59683;51.428;-1.994;2024-01-16T04:37:32;12.25;;;5.45;;
66663;SDS011;59683;51.428;-1.994;2024-01-16T04:39:58;25.23;;;5.80;;
66663;SDS011;59683;51.428;-1.994;2024-01-16T04:42:24;17.48;;;5.18;;
66663;SDS011;59683;51.428;-1.994;2024-01-16T04:44:50;13.33;;;5.80;;
66663;SDS011;59683;51.428;-1.994;2024-01-16T04:47:15;10.00;;;5.03;;
66663;SDS011;59683;51.428;-1.994;2024-01-16T04:49:41;12.90;;;5.37;;
66663;SDS011;59683;51.428;-1.994;2024-01-16T04:52:07;13.73;;;5.40;;
66663;SDS011;59683;51.428;-1.994;2024-01-16T04:54:33;14.13;;;5.27;;
66663;SDS011;59683;51.428;-1.994;2024-01-16T04:56:58;13.97;;;4.43;;
66663;SDS011;59683;51.428;-1.994;2024-01-16T04:59:24;11.57;;;5.47;;
66663;SDS011;59683;51.428;-1.994;2024-01-16T05:01:50;14.13;;;5.27;;
66663;SDS011;59683;51.428;-1.994;2024-01-16T05:04:15;11.57;;;5.32;;
66663;SDS011;59683;51.428;-1.994;2024-01-16T05:06:41;9.00;;;4.77;;
66663;SDS011;59683;51.428;-1.994;2024-01-16T05:09:06;14.77;;;5.27;;
66663;SDS011;59683;51.428;-1.994;2024-01-16T05:11:31;9.17;;;4.77;;
66663;SDS011;59683;51.428;-1.994;2024-01-16T05:13:57;15.53;;;5.33;;
66663;SDS011;59683;51.428;-1.994;2024-01-16T05:16:24;14.63;;;5.10;;
66663;SDS011;59683;51.428;-1.994;2024-01-16T05:18:50;18.13;;;5.57;;
66663;SDS011;59683;51.428;-1.994;2024-01-16T05:21:16;13.43;;;5.40;;
66663;SDS011;59683;51.428;-1.994;2024-01-16T05:23:41;13.37;;;4.67;;
66663;SDS011;59683;51.428;-1.994;2024-01-16T05:26:06;12.30;;;5.47;;
66663;SDS011;59683;51.428;-1.994;2024-01-16T05:28:32;9.77;;;5.40;;
66663;SDS011;59683;51.428;-1.994;2024-01-16T05:30:57;10.50;;;4.47;;
66663;SDS011;59683;51.428;-1.994;2024-01-16T05:33:22;10.40;;;4.73;;
66663;SDS011;59683;51.428;-1.994;2024-01-16T05:35:48;10.93;;;4.70;;
66663;SDS011;59683;51.428;-1.994;2024-01-16T05:38:13;16.07;;;5.67;;
66663;SDS011;59683;51.428;-1.994;2024-01-16T05:40:38;12.60;;;5.43;;
66663;SDS011;59683;51.428;-1.994;2024-01-16T05:43:04;15.95;;;5.55;;
66663;SDS011;59683;51.428;-1.994;2024-01-16T05:45:30;15.00;;;5.30;;
66663;SDS011;59683;51.428;-1.994;2024-01-16T05:47:55;18.03;;;5.53;;
66663;SDS011;59683;51.428;-1.994;2024-01-16T05:50:21;21.00;;;5.85;;
66663;SDS011;59683;51.428;-1.994;2024-01-16T05:52:47;13.03;;;5.80;;
66663;SDS011;59683;51.428;-1.994;2024-01-16T05:55:12;18.47;;;6.20;;
66663;SDS011;59683;51.428;-1.994;2024-01-16T05:57:38;16.83;;;5.60;;
66663;SDS011;59683;51.428;-1.994;2024-01-16T06:00:03;24.47;;;6.17;;
66663;SDS011;59683;51.428;-1.994;2024-01-16T06:02:30;15.10;;;6.57;;
66663;SDS011;59683;51.428;-1.994;2024-01-16T06:04:55;21.07;;;6.57;;
66663;SDS011;59683;51.428;-1.994;2024-01-16T06:07:21;14.80;;;6.97;;
66663;SDS011;59683;51.428;-1.994;2024-01-16T06:09:46;23.37;;;6.50;;
66663;SDS011;59683;51.428;-1.994;2024-01-16T06:12:12;15.57;;;6.63;;
66663;SDS011;59683;51.428;-1.994;2024-01-16T06:14:37;17.67;;;6.33;;
66663;SDS011;59683;51.428;-1.994;2024-01-16T06:17:03;13.47;;;6.57;;
66663;SDS011;59683;51.428;-1.994;2024-01-16T06:19:31;20.67;;;6.30;;
66663;SDS011;59683;51.428;-1.994;2024-01-16T06:21:58;13.87;;;4.47;;
66663;SDS011;59683;51.428;-1.994;2024-01-16T06:24:24;15.27;;;6.65;;
66663;SDS011;59683;51.428;-1.994;2024-01-16T06:26:49;16.30;;;5.00;;
66663;SDS011;59683;51.428;-1.994;2024-01-16T06:29:14;13.80;;;5.23;;
66663;SDS011;59683;51.428;-1.994;2024-01-16T06:31:40;13.33;;;4.73;;
66663;SDS011;59683;51.428;-1.994;2024-01-16T06:34:05;11.97;;;5.07;;
66663;SDS011;59683;51.428;-1.994;2024-01-16T06:36:31;15.13;;;6.10;;
66663;SDS011;59683;51.428;-1.994;2024-01-16T06:38:56;11.53;;;5.10;;
66663;SDS011;59683;51.428;-1.994;2024-01-16T06:41:21;13.93;;;5.83;;
66663;SDS011;59683;51.428;-1.994;2024-01-16T06:43:47;13.93;;;5.97;;
66663;SDS011;59683;51.428;-1.994;2024-01-16T06:46:12;15.60;;;5.77;;
66663;SDS011;59683;51.428;-1.994;2024-01-16T06:48:38;16.50;;;6.57;;
66663;SDS011;59683;51.428;-1.994;2024-01-16T06:51:03;17.87;;;6.20;;
66663;SDS011;59683;51.428;-1.994;2024-01-16T06:53:29;13.88;;;5.70;;
66663;SDS011;59683;51.428;-1.994;2024-01-16T06:55:55;13.60;;;5.83;;
66663;SDS011;59683;51.428;-1.994;2024-01-16T06:58:20;14.30;;;6.80;;
66663;SDS011;59683;51.428;-1.994;2024-01-16T07:00:46;19.67;;;6.93;;
66663;SDS011;59683;51.428;-1.994;2024-01-16T07:03:12;17.25;;;6.72;;
66663;SDS011;59683;51.428;-1.994;2024-01-16T07:05:38;13.57;;;6.72;;
66663;SDS011;59683;51.428;-1.994;2024-01-16T07:08:06;19.15;;;6.88;;
66663;SDS011;59683;51.428;-1.994;2024-01-16T07:10:32;12.50;;;6.57;;
66663;SDS011;59683;51.428;-1.994;2024-01-16T07:12:57;15.67;;;6.23;;
66663;SDS011;59683;51.428;-1.994;2024-01-16T07:15:23;17.57;;;6.70;;
66663;SDS011;59683;51.428;-1.994;2024-01-16T07:17:48;12.70;;;5.80;;
66663;SDS011;59683;51.428;-1.994;2024-01-16T07:20:14;13.63;;;5.60;;
66663;SDS011;59683;51.428;-1.994;2024-01-16T07:22:39;17.73;;;5.20;;
66663;SDS011;59683;51.428;-1.994;2024-01-16T07:25:05;15.23;;;5.17;;
66663;SDS011;59683;51.428;-1.994;2024-01-16T07:27:31;13.77;;;5.03;;
66663;SDS011;59683;51.428;-1.994;2024-01-16T07:29:56;10.07;;;3.80;;
66663;SDS011;59683;51.428;-1.994;2024-01-16T07:32:22;8.97;;;3.77;;
66663;SDS011;59683;51.428;-1.994;2024-01-16T07:34:47;14.67;;;4.97;;
66663;SDS011;59683;51.428;-1.994;2024-01-16T07:37:13;25.23;;;8.20;;
66663;SDS011;59683;51.428;-1.994;2024-01-16T07:39:38;15.93;;;5.57;;
66663;SDS011;59683;51.428;-1.994;2024-01-16T07:42:04;13.73;;;5.63;;
66663;SDS011;59683;51.428;-1.994;2024-01-16T07:44:29;11.83;;;4.33;;
66663;SDS011;59683;51.428;-1.994;2024-01-16T07:46:55;9.43;;;4.10;;
66663;SDS011;59683;51.428;-1.994;2024-01-16T07:49:20;10.33;;;3.93;;
66663;SDS011;59683;51.428;-1.994;2024-01-16T07:51:45;16.23;;;4.20;;
66663;SDS011;59683;51.428;-1.994;2024-01-16T07:54:11;8.80;;;4.00;;
66663;SDS011;59683;51.428;-1.994;2024-01-16T07:56:38;9.20;;;4.10;;
66663;SDS011;59683;51.428;-1.994;2024-01-16T07:59:03;12.53;;;4.10;;
66663;SDS011;59683;51.428;-1.994;2024-01-16T08:01:29;7.30;;;4.10;;
66663;SDS011;59683;51.428;-1.994;2024-01-16T08:03:55;12.17;;;4.27;;
66663;SDS011;59683;51.428;-1.994;2024-01-16T08:06:21;12.85;;;4.25;;
66663;SDS011;59683;51.428;-1.994;2024-01-16T08:08:47;12.18;;;4.30;;
66663;SDS011;59683;51.428;-1.994;2024-01-16T08:11:13;14.75;;;4.85;;
66663;SDS011;59683;51.428;-1.994;2024-01-16T08:13:39;7.90;;;4.57;;
66663;SDS011;59683;51.428;-1.994;2024-01-16T08:16:04;15.63;;;5.63;;
66663;SDS011;59683;51.428;-1.994;2024-01-16T08:18:30;11.47;;;4.67;;
66663;SDS011;59683;51.428;-1.994;2024-01-16T08:20:56;9.88;;;4.43;;
66663;SDS011;59683;51.428;-1.994;2024-01-16T08:23:22;12.03;;;5.07;;
66663;SDS011;59683;51.428;-1.994;2024-01-16T08:25:47;9.97;;;4.70;;
66663;SDS011;59683;51.428;-1.994;2024-01-16T08:28:13;13.07;;;5.73;;
66663;SDS011;59683;51.428;-1.994;2024-01-16T08:30:39;19.85;;;8.05;;
66663;SDS011;59683;51.428;-1.994;2024-01-16T08:33:04;16.73;;;7.63;;
66663;SDS011;59683;51.428;-1.994;2024-01-16T08:35:29;13.90;;;6.70;;
66663;SDS011;59683;51.428;-1.994;2024-01-16T08:37:55;21.40;;;9.60;;
66663;SDS011;59683;51.428;-1.994;2024-01-16T08:40:20;15.23;;;7.13;;
66663;SDS011;59683;51.428;-1.994;2024-01-16T08:42:46;15.87;;;6.07;;
66663;SDS011;59683;51.428;-1.994;2024-01-16T08:45:16;12.90;;;6.55;;
66663;SDS011;59683;51.428;-1.994;2024-01-16T08:47:43;10.65;;;5.97;;
66663;SDS011;59683;51.428;-1.994;2024-01-16T08:50:08;14.03;;;6.07;;
66663;SDS011;59683;51.428;-1.994;2024-01-16T08:52:34;19.33;;;6.90;;
66663;SDS011;59683;51.428;-1.994;2024-01-16T08:55:00;11.68;;;5.10;;
66663;SDS011;59683;51.428;-1.994;2024-01-16T08:57:25;10.23;;;5.80;;
66663;SDS011;59683;51.428;-1.994;2024-01-16T08:59:51;12.43;;;6.10;;
66663;SDS011;59683;51.428;-1.994;2024-01-16T09:02:17;10.70;;;5.63;;
66663;SDS011;59683;51.428;-1.994;2024-01-16T09:04:43;10.97;;;5.00;;
66663;SDS011;59683;51.428;-1.994;2024-01-16T09:07:09;9.20;;;4.20;;
66663;SDS011;59683;51.428;-1.994;2024-01-16T09:09:34;20.33;;;5.17;;
66663;SDS011;59683;51.428;-1.994;2024-01-16T09:11:59;12.17;;;4.10;;
66663;SDS011;59683;51.428;-1.994;2024-01-16T09:14:25;9.93;;;4.33;;
66663;SDS011;59683;51.428;-1.994;2024-01-16T09:16:50;8.97;;;3.53;;
66663;SDS011;59683;51.428;-1.994;2024-01-16T09:19:16;10.63;;;4.33;;
66663;SDS011;59683;51.428;-1.994;2024-01-16T09:21:41;7.63;;;3.53;;
66663;SDS011;59683;51.428;-1.994;2024-01-16T09:24:07;10.73;;;4.47;;
66663;SDS011;59683;51.428;-1.994;2024-01-16T09:26:33;10.20;;;4.57;;
66663;SDS011;59683;51.428;-1.994;2024-01-16T09:28:58;9.17;;;4.27;;
66663;SDS011;59683;51.428;-1.994;2024-01-16T09:31:24;9.63;;;3.73;;
66663;SDS011;59683;51.428;-1.994;2024-01-16T09:33:49;13.40;;;4.43;;
66663;SDS011;59683;51.428;-1.994;2024-01-16T09:36:15;10.00;;;3.50;;
66663;SDS011;59683;51.428;-1.994;2024-01-16T09:38:40;7.40;;;3.67;;
66663;SDS011;59683;51.428;-1.994;2024-01-16T09:41:06;8.40;;;3.73;;
66663;SDS011;59683;51.428;-1.994;2024-01-16T09:43:32;9.82;;;3.25;;
66663;SDS011;59683;51.428;-1.994;2024-01-16T09:46:02;7.88;;;3.08;;
66663;SDS011;59683;51.428;-1.994;2024-01-16T09:48:29;7.68;;;4.32;;
66663;SDS011;59683;51.428;-1.994;2024-01-16T09:50:55;6.73;;;3.00;;
66663;SDS011;59683;51.428;-1.994;2024-01-16T09:53:20;4.80;;;2.37;;
66663;SDS011;59683;51.428;-1.994;2024-01-16T09:55:47;6.13;;;1.70;;
66663;SDS011;59683;51.428;-1.994;2024-01-16T09:58:14;5.38;;;1.83;;
66663;SDS011;59683;51.428;-1.994;2024-01-16T10:00:42;6.53;;;1.92;;
66663;SDS011;59683;51.428;-1.994;2024-01-16T10:03:09;6.45;;;1.80;;
66663;SDS011;59683;51.428;-1.994;2024-01-16T10:05:38;5.95;;;2.45;;
66663;SDS011;59683;51.428;-1.994;2024-01-16T10:08:06;7.50;;;2.87;;
66663;SDS011;59683;51.428;-1.994;2024-01-16T10:10:33;8.67;;;1.63;;
66663;SDS011;59683;51.428;-1.994;2024-01-16T10:12:58;7.17;;;1.90;;
66663;SDS011;59683;51.428;-1.994;2024-01-16T10:15:24;6.30;;;1.93;;
66663;SDS011;59683;51.428;-1.994;2024-01-16T10:17:50;4.47;;;1.80;;
66663;SDS011;59683;51.428;-1.994;2024-01-16T10:20:15;7.63;;;1.57;;
66663;SDS011;59683;51.428;-1.994;2024-01-16T10:22:52;3.47;;;1.50;;
66663;SDS011;59683;51.428;-1.994;2024-01-16T10:25:18;5.03;;;1.60;;
66663;SDS011;59683;51.428;-1.994;2024-01-16T10:27:46;5.77;;;1.60;;
66663;SDS011;59683;51.428;-1.994;2024-01-16T10:30:11;3.73;;;1.17;;
66663;SDS011;59683;51.428;-1.994;2024-01-16T10:32:38;6.53;;;2.00;;
66663;SDS011;59683;51.428;-1.994;2024-01-16T10:35:06;4.70;;;1.43;;
66663;SDS011;59683;51.428;-1.994;2024-01-16T10:40:23;10.10;;;1.80;;
66663;SDS011;59683;51.428;-1.994;2024-01-16T10:43:00;6.43;;;2.60;;
66663;SDS011;59683;51.428;-1.994;2024-01-16T10:45:28;5.07;;;1.77;;
66663;SDS011;59683;51.428;-1.994;2024-01-16T10:48:06;5.27;;;2.20;;
66663;SDS011;59683;51.428;-1.994;2024-01-16T10:50:33;10.53;;;2.40;;
66663;SDS011;59683;51.428;-1.994;2024-01-16T10:53:00;6.37;;;2.03;;
66663;SDS011;59683;51.428;-1.994;2024-01-16T10:55:30;5.67;;;2.30;;
66663;SDS011;59683;51.428;-1.994;2024-01-16T10:57:59;8.00;;;2.10;;
66663;SDS011;59683;51.428;-1.994;2024-01-16T11:00:28;6.70;;;2.40;;
66663;SDS011;59683;51.428;-1.994;2024-01-16T11:03:07;9.23;;;2.23;;
66663;SDS011;59683;51.428;-1.994;2024-01-16T11:05:37;5.03;;;1.90;;
66663;SDS011;59683;51.428;-1.994;2024-01-16T11:08:04;9.70;;;1.83;;
66663;SDS011;59683;51.428;-1.994;2024-01-16T11:10:31;6.83;;;2.27;;
66663;SDS011;59683;51.428;-1.994;2024-01-16T11:13:00;6.00;;;2.60;;
66663;SDS011;59683;51.428;-1.994;2024-01-16T11:15:27;11.33;;;2.63;;
66663;SDS011;59683;51.428;-1.994;2024-01-16T11:17:54;7.43;;;2.23;;
66663;SDS011;59683;51.428;-1.994;2024-01-16T11:20:20;7.27;;;2.17;;
66663;SDS011;59683;51.428;-1.994;2024-01-16T11:22:46;8.50;;;2.13;;
66663;SDS011;59683;51.428;-1.994;2024-01-16T11:25:14;7.43;;;2.50;;
66663;SDS011;59683;51.428;-1.994;2024-01-16T11:27:42;11.63;;;2.60;;
66663;SDS011;59683;51.428;-1.994;2024-01-16T11:30:09;7.33;;;2.20;;
66663;SDS011;59683;51.428;-1.994;2024-01-16T11:32:36;7.07;;;1.93;;
66663;SDS011;59683;51.428;-1.994;2024-01-16T11:35:06;10.25;;;2.50;;
66663;SDS011;59683;51.428;-1.994;2024-01-16T11:37:32;7.63;;;2.20;;
66663;SDS011;59683;51.428;-1.994;2024-01-16T11:42:43;9.73;;;2.60;;
66663;SDS011;59683;51.428;-1.994;2024-01-16T11:45:54;10.63;;;3.00;;
66663;SDS011;59683;51.428;-1.994;2024-01-16T11:48:10;8.40;;;2.20;;
66663;SDS011;59683;51.428;-1.994;2024-01-16T11:50:40;8.67;;;2.43;;
66663;SDS011;59683;51.428;-1.994;2024-01-16T11:53:07;8.80;;;2.57;;
66663;SDS011;59683;51.428;-1.994;2024-01-16T12:00:53;7.97;;;2.50;;
66663;SDS011;59683;51.428;-1.994;2024-01-16T12:03:22;9.77;;;2.30;;
66663;SDS011;59683;51.428;-1.994;2024-01-16T12:05:57;9.30;;;1.80;;
66663;SDS011;59683;51.428;-1.994;2024-01-16T12:08:23;6.67;;;1.70;;
66663;SDS011;59683;51.428;-1.994;2024-01-16T12:10:49;6.73;;;1.63;;
66663;SDS011;59683;51.428;-1.994;2024-01-16T12:13:15;4.10;;;1.50;;
66663;SDS011;59683;51.428;-1.994;2024-01-16T12:15:41;8.10;;;2.23;;
66663;SDS011;59683;51.428;-1.994;2024-01-16T12:18:06;8.60;;;1.63;;
66663;SDS011;59683;51.428;-1.994;2024-01-16T12:20:33;6.90;;;1.50;;
66663;SDS011;59683;51.428;-1.994;2024-01-16T12:23:01;48.40;;;4.70;;
66663;SDS011;59683;51.428;-1.994;2024-01-16T12:25:29;10.87;;;2.33;;
66663;SDS011;59683;51.428;-1.994;2024-01-16T12:27:59;8.00;;;1.97;;
66663;SDS011;59683;51.428;-1.994;2024-01-16T12:30:26;8.02;;;1.40;;
66663;SDS011;59683;51.428;-1.994;2024-01-16T12:33:02;4.50;;;1.63;;
66663;SDS011;59683;51.428;-1.994;2024-01-16T12:35:29;6.63;;;1.70;;
66663;SDS011;59683;51.428;-1.994;2024-01-16T12:37:59;8.20;;;3.17;;
66663;SDS011;59683;51.428;-1.994;2024-01-16T12:40:25;6.95;;;2.50;;
66663;SDS011;59683;51.428;-1.994;2024-01-16T12:42:51;6.20;;;1.53;;
66663;SDS011;59683;51.428;-1.994;2024-01-16T12:45:18;4.40;;;1.47;;
66663;SDS011;59683;51.428;-1.994;2024-01-16T12:47:43;5.57;;;1.67;;
66663;SDS011;59683;51.428;-1.994;2024-01-16T12:50:09;8.73;;;2.23;;
66663;SDS011;59683;51.428;-1.994;2024-01-16T12:52:35;15.80;;;2.37;;
66663;SDS011;59683;51.428;-1.994;2024-01-16T12:55:01;6.50;;;1.80;;
66663;SDS011;59683;51.428;-1.994;2024-01-16T12:57:26;8.03;;;1.70;;
66663;SDS011;59683;51.428;-1.994;2024-01-16T12:59:52;7.37;;;1.33;;
66663;SDS011;59683;51.428;-1.994;2024-01-16T13:02:21;7.43;;;1.33;;
66663;SDS011;59683;51.428;-1.994;2024-01-16T13:04:47;6.07;;;1.73;;
66663;SDS011;59683;51.428;-1.994;2024-01-16T13:07:16;8.53;;;2.17;;
66663;SDS011;59683;51.428;-1.994;2024-01-16T13:09:43;7.95;;;1.15;;
66663;SDS011;59683;51.428;-1.994;2024-01-16T13:12:08;7.57;;;1.13;;
66663;SDS011;59683;51.428;-1.994;2024-01-16T13:14:34;11.17;;;1.67;;
66663;SDS011;59683;51.428;-1.994;2024-01-16T13:16:59;3.97;;;1.37;;
66663;SDS011;59683;51.428;-1.994;2024-01-16T13:19:26;10.55;;;1.27;;
66663;SDS011;59683;51.428;-1.994;2024-01-16T13:21:54;7.68;;;1.05;;
66663;SDS011;59683;51.428;-1.994;2024-01-16T13:24:19;11.50;;;1.77;;
66663;SDS011;59683;51.428;-1.994;2024-01-16T13:26:48;11.20;;;2.23;;
66663;SDS011;59683;51.428;-1.994;2024-01-16T13:29:13;9.40;;;2.00;;
66663;SDS011;59683;51.428;-1.994;2024-01-16T13:31:40;9.07;;;1.83;;
66663;SDS011;59683;51.428;-1.994;2024-01-16T13:34:05;5.00;;;1.13;;
66663;SDS011;59683;51.428;-1.994;2024-01-16T13:36:31;2.70;;;0.80;;
66663;SDS011;59683;51.428;-1.994;2024-01-16T13:38:56;9.20;;;1.70;;
66663;SDS011;59683;51.428;-1.994;2024-01-16T13:41:21;5.93;;;1.00;;
66663;SDS011;59683;51.428;-1.994;2024-01-16T13:43:47;6.97;;;1.70;;
66663;SDS011;59683;51.428;-1.994;2024-01-16T13:46:14;8.13;;;1.73;;
66663;SDS011;59683;51.428;-1.994;2024-01-16T13:48:42;7.63;;;1.37;;
66663;SDS011;59683;51.428;-1.994;2024-01-16T13:51:07;4.60;;;1.27;;
66663;SDS011;59683;51.428;-1.994;2024-01-16T13:53:33;16.60;;;2.17;;
66663;SDS011;59683;51.428;-1.994;2024-01-16T13:55:59;4.50;;;1.00;;
66663;SDS011;59683;51.428;-1.994;2024-01-16T13:58:25;5.77;;;1.27;;
66663;SDS011;59683;51.428;-1.994;2024-01-16T14:00:51;3.93;;;0.90;;
66663;SDS011;59683;51.428;-1.994;2024-01-16T14:03:16;5.40;;;0.90;;
66663;SDS011;59683;51.428;-1.994;2024-01-16T14:05:42;10.37;;;1.60;;
66663;SDS011;59683;51.428;-1.994;2024-01-16T14:08:08;7.10;;;1.13;;
66663;SDS011;59683;51.428;-1.994;2024-01-16T14:10:37;5.35;;;1.10;;
66663;SDS011;59683;51.428;-1.994;2024-01-16T14:13:03;3.03;;;0.73;;
66663;SDS011;59683;51.428;-1.994;2024-01-16T14:15:29;4.97;;;1.13;;
66663;SDS011;59683;51.428;-1.994;2024-01-16T14:17:55;4.57;;;1.70;;
66663;SDS011;59683;51.428;-1.994;2024-01-16T14:20:23;3.83;;;0.93;;
66663;SDS011;59683;51.428;-1.994;2024-01-16T14:22:51;3.63;;;0.90;;
66663;SDS011;59683;51.428;-1.994;2024-01-16T14:25:17;6.23;;;1.10;;
66663;SDS011;59683;51.428;-1.994;2024-01-16T14:27:44;10.65;;;2.33;;
66663;SDS011;59683;51.428;-1.994;2024-01-16T14:30:20;4.90;;;1.60;;